This is the latest recevied weather packets stored in our database for station/object IW2NIA-3. If no packets are shown the sender has not sent any weather packets the latest 1 day(s).
| Time | Temp. | Humidity | Pressure | Rain* | Wind** | Luminosity | Snow |
|---|---|---|---|---|---|---|---|
| 1778033912 | 13.33° C | 97% | 1009.6 hPa | 0.51 mm | 1.79 m/s, 179° | - | - |
| 1778033027 | 13.33° C | 97% | 1009.6 hPa | 0.25 mm | 1.34 m/s, 163° | - | - |
| 1778032116 | 13.33° C | 96% | 1009.6 hPa | 0.76 mm | 0.89 m/s, 182° | - | - |
| 1778031216 | 13.33° C | 96% | 1009.6 hPa | 2.54 mm | 1.34 m/s, 209° | - | - |
| 1778030306 | 13.33° C | 96% | 1009.7 hPa | 2.54 mm | 0.89 m/s, 222° | - | - |
| 1778029423 | 13.33° C | 96% | 1009.8 hPa | 2.54 mm | 1.34 m/s, 192° | - | - |
| 1778028516 | 13.33° C | 96% | 1010 hPa | 2.03 mm | 0.89 m/s, 209° | - | - |
| 1778027612 | 13.33° C | 96% | 1010.2 hPa | 0 mm | 0 m/s | - | - |
| 1778026709 | 13.33° C | 96% | 1010.3 hPa | 0 mm | 0.89 m/s, 132° | - | - |
| 1778025824 | 13.33° C | 96% | 1010.5 hPa | 0 mm | 0.89 m/s, 129° | - | - |
| 1778024917 | 12.78° C | 96% | 1010.7 hPa | 0 mm | 0.45 m/s, 134° | - | - |
| 1778024012 | 12.78° C | 96% | 1010.9 hPa | 0 mm | 0 m/s | - | - |
| 1778023125 | 12.78° C | 96% | 1010.9 hPa | 0 mm | 0 m/s | - | - |
| 1778022216 | 12.78° C | 96% | 1011 hPa | 0 mm | 0 m/s | - | - |
| 1778021311 | 12.78° C | 96% | 1011.1 hPa | 0 mm | 0 m/s | - | - |
| 1778020425 | 12.78° C | 96% | 1011.2 hPa | 0 mm | 0 m/s | - | - |
| 1778019521 | 12.78° C | 96% | 1011.3 hPa | 0 mm | 0.45 m/s, 135° | - | - |
| 1778018621 | 12.78° C | 96% | 1011.3 hPa | 0 mm | 0.89 m/s, 158° | - | - |
| 1778017712 | 12.78° C | 96% | 1011.4 hPa | 0 mm | 1.79 m/s, 140° | - | - |
| 1778016824 | 12.78° C | 96% | 1011.7 hPa | 0 mm | 0.45 m/s, 161° | - | - |
| 1778015920 | 12.78° C | 96% | 1011.8 hPa | 0 mm | 0 m/s | - | - |
| 1778015012 | 12.78° C | 96% | 1011.8 hPa | 0 mm | 0.45 m/s, 186° | - | - |
| 1778014116 | 12.78° C | 96% | 1011.9 hPa | 0.25 mm | 0.89 m/s, 147° | - | - |
| 1778013215 | 12.78° C | 96% | 1011.9 hPa | 0.25 mm | 0 m/s | - | - |
| 1778012325 | 12.78° C | 96% | 1012 hPa | 0.25 mm | 0.45 m/s, 171° | - | - |
* Rain latest hour (hover to see other rain measurements)
** Current wind speed in m/s (hover to see current wind gust speed)